createdAt,value
2019-03-28T05:00:54.490Z,44.00
2019-03-28T05:02:03.057Z,52.00
2019-03-28T05:02:54.832Z,56.00
2019-03-28T05:03:55.002Z,64.00
2019-03-28T05:04:55.173Z,68.00
2019-03-28T05:05:55.358Z,76.00
2019-03-28T05:06:55.517Z,76.00
2019-03-28T05:07:55.686Z,88.00
2019-03-28T05:08:55.853Z,92.00
2019-03-28T05:09:56.025Z,96.00
2019-03-28T05:10:56.198Z,104.00
2019-03-28T05:11:56.368Z,108.00
2019-03-28T05:12:56.539Z,116.00
2019-03-28T05:13:56.711Z,124.00
2019-03-28T05:14:56.885Z,128.00
2019-03-28T05:15:57.402Z,136.00
2019-03-28T05:16:57.229Z,140.00
2019-03-28T05:17:57.400Z,144.00
2019-03-28T05:18:57.693Z,156.00
2019-03-28T05:19:57.741Z,164.00
2019-03-28T05:20:57.913Z,176.00
2019-03-28T05:21:58.083Z,188.00
2019-03-28T05:22:58.255Z,200.00
2019-03-28T05:23:58.427Z,212.00
2019-03-28T05:24:58.872Z,224.00
2019-03-28T05:25:58.767Z,240.00
2019-03-28T05:26:58.943Z,252.00
2019-03-28T05:27:59.388Z,268.00
2019-03-28T05:28:59.459Z,280.00
2019-03-28T05:29:59.451Z,296.00
2019-03-28T05:30:59.622Z,308.00
2019-03-28T05:32:00.396Z,316.00
2019-03-28T05:32:59.965Z,324.00
2019-03-28T05:34:00.138Z,336.00
2019-03-28T05:35:00.671Z,356.00
2019-03-28T05:36:00.476Z,388.00
2019-03-28T05:37:00.648Z,420.00
2019-03-28T05:38:00.817Z,456.00
2019-03-28T05:39:00.987Z,480.00
2019-03-28T05:40:01.161Z,496.00
2019-03-28T05:41:01.339Z,500.00
2019-03-28T05:42:01.501Z,508.00
2019-03-28T05:43:01.672Z,540.00
2019-03-28T05:44:01.843Z,568.00
2019-03-28T05:45:02.023Z,584.00
2019-03-28T05:46:02.183Z,604.00
2019-03-28T05:47:02.353Z,620.00
2019-03-28T05:48:02.531Z,656.00
2019-03-28T05:49:02.698Z,708.00
2019-03-28T05:50:02.869Z,780.00
2019-03-28T05:51:03.038Z,848.00
2019-03-28T05:52:03.208Z,912.00
2019-03-28T05:53:03.379Z,988.00
2019-03-28T05:54:03.547Z,1076.00
2019-03-28T05:55:05.371Z,1172.00
2019-03-28T05:56:03.890Z,1248.00
2019-03-28T05:57:04.058Z,1312.00
2019-03-28T05:58:04.229Z,1356.00
2019-03-28T05:59:10.657Z,1372.00
2019-03-28T06:00:04.575Z,1404.00
2019-03-28T06:01:04.744Z,1448.00
2019-03-28T06:02:04.914Z,1500.00
2019-03-28T06:03:05.084Z,1512.00
2019-03-28T06:04:05.263Z,1520.00
2019-03-28T06:05:05.429Z,1512.00
2019-03-28T06:06:05.601Z,1456.00
2019-03-28T06:07:08.606Z,1392.00
2019-03-28T06:08:05.987Z,1372.00
2019-03-28T06:09:06.154Z,1408.00
2019-03-28T06:10:06.325Z,1456.00
2019-03-28T06:11:06.497Z,1444.00
2019-03-28T06:12:06.670Z,1396.00
2019-03-28T06:13:06.842Z,1364.00
2019-03-28T06:14:07.030Z,1376.00
2019-03-28T06:15:07.185Z,1416.00
2019-03-28T06:16:07.357Z,1436.00
2019-03-28T06:17:07.531Z,1484.00
2019-03-28T06:18:07.700Z,1544.00
2019-03-28T06:19:07.874Z,1580.00
2019-03-28T06:20:08.043Z,1632.00
2019-03-28T06:21:08.216Z,1684.00
2019-03-28T06:22:08.386Z,1760.00
2019-03-28T06:23:08.556Z,1872.00
2019-03-28T06:24:08.732Z,2000.00
2019-03-28T06:25:08.903Z,2140.00
2019-03-28T06:26:09.074Z,2324.00
2019-03-28T06:27:09.244Z,2552.00
2019-03-28T06:28:09.416Z,2776.00
2019-03-28T06:29:09.588Z,2964.00
2019-03-28T06:30:09.761Z,3124.00
2019-03-28T06:31:10.637Z,3244.00
2019-03-28T06:32:10.104Z,3348.00
2019-03-28T06:33:10.274Z,3448.00
2019-03-28T06:34:10.446Z,3544.00
2019-03-28T06:35:10.618Z,3640.00
2019-03-28T06:36:10.797Z,3732.00
2019-03-28T06:37:10.967Z,3808.00
2019-03-28T06:38:11.139Z,3904.00
2019-03-28T06:39:11.308Z,4012.00
2019-03-28T06:40:11.480Z,4112.00
2019-03-28T06:41:11.650Z,4212.00
2019-03-28T06:42:11.822Z,4300.00
2019-03-28T06:43:11.993Z,4380.00
2019-03-28T06:44:12.238Z,4444.00
2019-03-28T06:45:12.336Z,4500.00
2019-03-28T06:46:12.509Z,4536.00
2019-03-28T06:47:12.682Z,4556.00
2019-03-28T06:48:12.852Z,4564.00
2019-03-28T06:49:13.026Z,4584.00
2019-03-28T06:50:13.194Z,4628.00
2019-03-28T06:51:13.364Z,4688.00
2019-03-28T06:52:13.535Z,4752.00
2019-03-28T06:53:13.708Z,4812.00
2019-03-28T06:54:13.881Z,4856.00
2019-03-28T06:55:14.053Z,4924.00
2019-03-28T06:56:14.226Z,5000.00
2019-03-28T06:57:14.395Z,5044.00
2019-03-28T06:58:14.565Z,5076.00
2019-03-28T06:59:14.738Z,5132.00
2019-03-28T07:00:14.915Z,5244.00
2019-03-28T07:01:15.079Z,5416.00
2019-03-28T07:02:15.253Z,5624.00
2019-03-28T07:03:15.425Z,5844.00
2019-03-28T07:04:15.598Z,6156.00
2019-03-28T07:05:15.768Z,6544.00
2019-03-28T07:06:15.942Z,7044.00
2019-03-28T07:07:18.494Z,7528.00
2019-03-28T07:08:16.280Z,7952.00
2019-03-28T07:09:16.452Z,8136.00
2019-03-28T07:10:16.625Z,8260.00
2019-03-28T07:11:16.795Z,8484.00
2019-03-28T07:12:16.972Z,8684.00
2019-03-28T07:13:17.140Z,8784.00
2019-03-28T07:14:17.310Z,8716.00
2019-03-28T07:15:17.483Z,8400.00
2019-03-28T07:16:20.910Z,7880.00
2019-03-28T07:17:17.826Z,7348.00
2019-03-28T07:18:17.999Z,6956.00
2019-03-28T07:19:18.174Z,6688.00
2019-03-28T07:20:18.343Z,6468.00
2019-03-28T07:21:18.516Z,6328.00
2019-03-28T07:22:18.688Z,6288.00
2019-03-28T07:23:18.859Z,6328.00
2019-03-28T07:24:19.032Z,6460.00
2019-03-28T07:25:19.201Z,6636.00
2019-03-28T07:26:19.371Z,6868.00
2019-03-28T07:27:19.550Z,7156.00
2019-03-28T07:28:19.718Z,7368.00
2019-03-28T07:29:19.886Z,7636.00
2019-03-28T07:30:20.057Z,7776.00
2019-03-28T07:31:20.228Z,7924.00
2019-03-28T07:32:20.398Z,8076.00
2019-03-28T07:33:20.572Z,8304.00
2019-03-28T07:34:20.744Z,8536.00
2019-03-28T07:35:20.917Z,8796.00
2019-03-28T07:36:21.092Z,9072.00
2019-03-28T07:37:21.263Z,9340.00
2019-03-28T07:38:21.437Z,9424.00
2019-03-28T07:39:21.608Z,9428.00
2019-03-28T07:40:21.783Z,9600.00
2019-03-28T07:41:21.955Z,9716.00
2019-03-28T07:42:22.124Z,9816.00
2019-03-28T07:43:25.078Z,9824.00
2019-03-28T07:44:22.475Z,9876.00
2019-03-28T07:45:22.652Z,9928.00
2019-03-28T07:46:22.832Z,10020.00
2019-03-28T07:47:23.055Z,10168.00
2019-03-28T07:48:23.164Z,10396.00
2019-03-28T07:49:23.336Z,10600.00
2019-03-28T07:50:23.509Z,10840.00
2019-03-28T07:51:23.683Z,11056.00
2019-03-28T07:52:23.853Z,11344.00
2019-03-28T07:53:24.024Z,11564.00
2019-03-28T07:54:24.205Z,11708.00
2019-03-28T07:55:24.368Z,11780.00
2019-03-28T07:56:24.548Z,11796.00
2019-03-28T07:57:24.725Z,11792.00
2019-03-28T07:58:24.894Z,11752.00
2019-03-28T07:59:25.067Z,11700.00
2019-03-28T08:00:25.240Z,11608.00
2019-03-28T08:01:25.415Z,11508.00
2019-03-28T08:02:25.586Z,11412.00
2019-03-28T08:03:25.760Z,11292.00
2019-03-28T08:04:25.932Z,11192.00
2019-03-28T08:05:26.105Z,11120.00
2019-03-28T08:06:26.284Z,11060.00
2019-03-28T08:07:26.450Z,10992.00
2019-03-28T08:08:38.383Z,10956.00
2019-03-28T08:09:36.548Z,10976.00
2019-03-28T08:10:26.968Z,11048.00
2019-03-28T08:11:27.253Z,11220.00
2019-03-28T08:12:27.316Z,11492.00
2019-03-28T08:13:27.486Z,11836.00
2019-03-28T08:14:27.660Z,12176.00
2019-03-28T08:15:27.832Z,12484.00
2019-03-28T08:16:28.996Z,12636.00
2019-03-28T08:17:28.181Z,12732.00
2019-03-28T08:18:28.356Z,12648.00
2019-03-28T08:19:28.526Z,12452.00
2019-03-28T08:20:28.700Z,12420.00
2019-03-28T08:21:28.874Z,12384.00
2019-03-28T08:22:29.820Z,12120.00
2019-03-28T08:23:29.222Z,11892.00
2019-03-28T08:24:29.395Z,11888.00
2019-03-28T08:25:29.570Z,12064.00
2019-03-28T08:26:30.357Z,12228.00
2019-03-28T08:27:29.913Z,12348.00
2019-03-28T08:28:30.093Z,12288.00
2019-03-28T08:29:30.264Z,12488.00
2019-03-28T08:30:30.436Z,12868.00
2019-03-28T08:31:30.606Z,13176.00
2019-03-28T08:32:30.779Z,13680.00
2019-03-28T08:33:30.954Z,14804.00
2019-03-28T08:34:31.465Z,15612.00
2019-03-28T08:35:31.301Z,17056.00
2019-03-28T08:36:31.476Z,18112.00
2019-03-28T08:37:31.651Z,19392.00
2019-03-28T08:38:32.785Z,20384.00
2019-03-28T08:39:31.995Z,21248.00
2019-03-28T08:40:32.168Z,22048.00
2019-03-28T08:41:32.344Z,21632.00
2019-03-28T08:42:32.516Z,21728.00
2019-03-28T08:43:35.819Z,21888.00
2019-03-28T08:44:32.862Z,21760.00
2019-03-28T08:45:33.047Z,22048.00
2019-03-28T08:46:33.212Z,23360.00
2019-03-28T08:47:33.386Z,22976.00
2019-03-28T08:48:33.561Z,24832.00
2019-03-28T08:49:33.735Z,24480.00
2019-03-28T08:50:34.005Z,24928.00
2019-03-28T08:51:34.127Z,25408.00
2019-03-28T08:52:34.261Z,24800.00
2019-03-28T08:53:34.433Z,26592.00
2019-03-28T08:54:34.607Z,27424.00
2019-03-28T08:55:34.783Z,25600.00
2019-03-28T08:56:34.958Z,24992.00
2019-03-28T08:57:35.132Z,27424.00
2019-03-28T08:58:37.962Z,28992.00
2019-03-28T08:59:35.488Z,30336.00
2019-03-28T09:00:51.018Z,31264.00
2019-03-28T09:01:35.832Z,31904.00
2019-03-28T09:02:36.009Z,32224.00
2019-03-28T09:03:36.184Z,30976.00
2019-03-28T09:04:36.363Z,18400.00
2019-03-28T09:05:36.534Z,18432.00
2019-03-28T09:06:36.710Z,16672.00
2019-03-28T09:07:36.885Z,16052.00
2019-03-28T09:08:37.056Z,15152.00
2019-03-28T09:09:37.232Z,30976.00
2019-03-28T09:10:37.403Z,40224.00
2019-03-28T09:11:37.579Z,38624.00
2019-03-28T09:12:37.751Z,18400.00
2019-03-28T09:13:37.926Z,22848.00
2019-03-28T09:14:38.100Z,26176.00
2019-03-28T09:15:44.009Z,29056.00
2019-03-28T09:16:38.452Z,24384.00
2019-03-28T09:17:38.627Z,33600.00
2019-03-28T09:18:38.805Z,34304.00
2019-03-28T09:19:39.239Z,42080.00
2019-03-28T09:20:39.158Z,43360.00
2019-03-28T09:21:39.332Z,42624.00
2019-03-28T09:22:39.508Z,41568.00
2019-03-28T09:23:39.687Z,28672.00
2019-03-28T09:24:39.862Z,42880.00
2019-03-28T09:25:40.038Z,40896.00
2019-03-28T09:26:40.214Z,43296.00
2019-03-28T09:27:40.392Z,36288.00
2019-03-28T09:28:40.566Z,41152.00
2019-03-28T09:29:40.741Z,41568.00
2019-03-28T09:30:48.987Z,42912.00
2019-03-28T09:31:41.095Z,43328.00
2019-03-28T09:32:41.273Z,44288.00
2019-03-28T09:33:41.451Z,44608.00
2019-03-28T09:34:41.627Z,43360.00
2019-03-28T09:35:41.834Z,39968.00
2019-03-28T09:36:41.992Z,41824.00
2019-03-28T09:37:42.162Z,47552.00
2019-03-28T09:38:42.336Z,48736.00
2019-03-28T09:39:42.517Z,49376.00
2019-03-28T09:40:42.696Z,50144.00
2019-03-28T09:41:42.874Z,53632.00
2019-03-28T09:42:43.051Z,52864.00
2019-03-28T09:43:54.421Z,53120.00
2019-03-28T09:44:43.407Z,47520.00
2019-03-28T09:45:43.584Z,50112.00
2019-03-28T09:46:43.761Z,28992.00
2019-03-28T09:47:43.939Z,20608.00
2019-03-28T09:48:44.113Z,45536.00
2019-03-28T09:49:44.289Z,19040.00
2019-03-28T09:50:44.467Z,18912.00
2019-03-28T09:51:44.642Z,18784.00
2019-03-28T09:52:44.819Z,16700.00
2019-03-28T09:53:44.995Z,15596.00
2019-03-28T09:54:45.171Z,15456.00
2019-03-28T09:55:45.352Z,16140.00
2019-03-28T09:56:45.529Z,17856.00
2019-03-28T09:57:45.708Z,19488.00
2019-03-28T09:58:45.889Z,40512.00
2019-03-28T09:59:46.063Z,30080.00
2019-03-28T10:00:46.249Z,22304.00
2019-03-28T10:01:46.417Z,22048.00
2019-03-28T10:02:46.596Z,23232.00
2019-03-28T10:03:46.772Z,22048.00
2019-03-28T10:04:46.947Z,22560.00
2019-03-28T10:05:47.124Z,23552.00
2019-03-28T10:06:47.302Z,24512.00
2019-03-28T10:07:47.483Z,40576.00
2019-03-28T10:08:47.656Z,53024.00
2019-03-28T10:09:48.298Z,66784.00
2019-03-28T10:10:48.830Z,48672.00
2019-03-28T10:11:48.184Z,48896.00
2019-03-28T10:12:48.363Z,69504.00
2019-03-28T10:13:48.537Z,47296.00
2019-03-28T10:14:48.715Z,60928.00
2019-03-28T10:15:48.890Z,51808.00
2019-03-28T10:16:49.065Z,42688.00
2019-03-28T10:17:49.243Z,60064.00
2019-03-28T10:18:49.421Z,72000.00
2019-03-28T10:19:49.594Z,60800.00
2019-03-28T10:20:49.772Z,53280.00
2019-03-28T10:21:49.948Z,47264.00
2019-03-28T10:22:50.126Z,43840.00
2019-03-28T10:23:50.300Z,36736.00
2019-03-28T10:24:50.477Z,30688.00
2019-03-28T10:25:50.650Z,29120.00
2019-03-28T10:26:50.835Z,26176.00
2019-03-28T10:27:51.006Z,26400.00
2019-03-28T10:28:51.183Z,25568.00
2019-03-28T10:29:51.357Z,26656.00
2019-03-28T10:30:51.536Z,31776.00
2019-03-28T10:31:51.711Z,32768.00
2019-03-28T10:32:51.887Z,35360.00
2019-03-28T10:33:52.065Z,30336.00
2019-03-28T10:34:52.243Z,31424.00
2019-03-28T10:35:52.417Z,33376.00
2019-03-28T10:36:52.594Z,30400.00
2019-03-28T10:37:52.769Z,27840.00
2019-03-28T10:38:52.947Z,25888.00
2019-03-28T10:39:53.125Z,25536.00
2019-03-28T10:40:53.299Z,26432.00
2019-03-28T10:41:54.714Z,29728.00
2019-03-28T10:42:53.654Z,38496.00
2019-03-28T10:43:53.831Z,38912.00
2019-03-28T10:44:54.010Z,37088.00
2019-03-28T10:45:54.184Z,39136.00
2019-03-28T10:46:54.363Z,36480.00
2019-03-28T10:47:54.536Z,34944.00
2019-03-28T10:48:54.718Z,32192.00
2019-03-28T10:49:54.889Z,36352.00
2019-03-28T10:50:55.064Z,42176.00
2019-03-28T10:51:55.241Z,39744.00
2019-03-28T10:52:55.415Z,38272.00
2019-03-28T10:53:55.593Z,33216.00
2019-03-28T10:54:55.776Z,30656.00
2019-03-28T10:55:55.942Z,28640.00
2019-03-28T10:56:58.051Z,27840.00
2019-03-28T10:57:56.295Z,28768.00
2019-03-28T10:58:56.472Z,29920.00
2019-03-28T10:59:56.647Z,26592.00
2019-03-28T11:00:56.823Z,26208.00
2019-03-28T11:01:57.002Z,25216.00
2019-03-28T11:02:57.292Z,24096.00
2019-03-28T11:03:57.348Z,23840.00
2019-03-28T11:04:57.530Z,23136.00
2019-03-28T11:05:57.704Z,23264.00
2019-03-28T11:06:58.523Z,23456.00
2019-03-28T11:07:58.056Z,23648.00
2019-03-28T11:08:58.229Z,24704.00
2019-03-28T11:09:58.405Z,25632.00
2019-03-28T11:10:58.581Z,25056.00
2019-03-28T11:11:58.758Z,24992.00
2019-03-28T11:12:58.942Z,25184.00
2019-03-28T11:13:59.116Z,22464.00
2019-03-28T11:14:59.292Z,20768.00
2019-03-28T11:15:59.466Z,19808.00
2019-03-28T11:16:59.641Z,19360.00
2019-03-28T11:17:59.816Z,19264.00
2019-03-28T11:18:59.994Z,19296.00
2019-03-28T11:20:00.304Z,19552.00
2019-03-28T11:21:00.344Z,19968.00
2019-03-28T11:22:00.530Z,20448.00
2019-03-28T11:23:02.333Z,20928.00
2019-03-28T11:24:00.873Z,22112.00
2019-03-28T11:25:01.054Z,23584.00
2019-03-28T11:26:01.227Z,25152.00
2019-03-28T11:27:01.403Z,28000.00
2019-03-28T11:28:01.581Z,36896.00
2019-03-28T11:29:01.760Z,71136.00
2019-03-28T11:30:01.937Z,60928.00
2019-03-28T11:31:02.108Z,39488.00
2019-03-28T11:32:02.288Z,35136.00
2019-03-28T11:33:02.460Z,30272.00
2019-03-28T11:34:02.638Z,27456.00
2019-03-28T11:35:02.813Z,25088.00
2019-03-28T11:36:02.986Z,22848.00
2019-03-28T11:37:03.163Z,21184.00
2019-03-28T11:38:03.339Z,19872.00
2019-03-28T11:39:03.513Z,19072.00
2019-03-28T11:40:03.689Z,19104.00
2019-03-28T11:41:03.865Z,19520.00
2019-03-28T11:42:04.044Z,20128.00
2019-03-28T11:43:04.216Z,20992.00
2019-03-28T11:44:04.394Z,21920.00
2019-03-28T11:45:04.573Z,23328.00
2019-03-28T11:46:04.746Z,25152.00
2019-03-28T11:47:04.924Z,25152.00
2019-03-28T11:48:05.099Z,25184.00
2019-03-28T11:49:05.275Z,26528.00
2019-03-28T11:50:05.451Z,43168.00
2019-03-28T11:51:05.631Z,29952.00
2019-03-28T11:52:05.806Z,28128.00
2019-03-28T11:53:05.983Z,30880.00
2019-03-28T11:54:06.164Z,49152.00
2019-03-28T11:55:06.414Z,36128.00
2019-03-28T11:56:06.513Z,34432.00
2019-03-28T11:57:06.689Z,34816.00
2019-03-28T11:58:06.866Z,34592.00
2019-03-28T11:59:07.040Z,55168.00
2019-03-28T12:00:07.215Z,57024.00
2019-03-28T12:01:07.389Z,52384.00
2019-03-28T12:02:19.244Z,38368.00
2019-03-28T12:03:07.742Z,33888.00
2019-03-28T12:04:07.916Z,30368.00
2019-03-28T12:05:08.096Z,25248.00
2019-03-28T12:06:08.275Z,21856.00
2019-03-28T12:07:08.455Z,20160.00
2019-03-28T12:08:08.624Z,18624.00
2019-03-28T12:09:08.799Z,17184.00
2019-03-28T12:10:08.975Z,16256.00
2019-03-28T12:11:09.153Z,15540.00
2019-03-28T12:12:09.335Z,15088.00
2019-03-28T12:13:09.504Z,14872.00
2019-03-28T12:14:09.682Z,14952.00
2019-03-28T12:15:09.856Z,15296.00
2019-03-28T12:16:10.035Z,16384.00
2019-03-28T12:17:10.207Z,18272.00
2019-03-28T12:18:10.382Z,20832.00
2019-03-28T12:19:10.575Z,23712.00
2019-03-28T12:20:10.736Z,26656.00
2019-03-28T12:21:10.910Z,51200.00
2019-03-28T12:22:11.087Z,46688.00
2019-03-28T12:23:11.262Z,46240.00
2019-03-28T12:24:11.438Z,35584.00
2019-03-28T12:25:11.614Z,35904.00
2019-03-28T12:26:11.791Z,35520.00
2019-03-28T12:27:11.966Z,35488.00
2019-03-28T12:28:12.141Z,41088.00
2019-03-28T12:29:12.317Z,46880.00
2019-03-28T12:30:15.728Z,75264.00
2019-03-28T12:31:12.674Z,44064.00
2019-03-28T12:32:14.180Z,39712.00
2019-03-28T12:33:13.026Z,34688.00
2019-03-28T12:34:13.203Z,33824.00
2019-03-28T12:35:13.385Z,27008.00
2019-03-28T12:36:13.557Z,24608.00
2019-03-28T12:37:13.730Z,23456.00
2019-03-28T12:38:13.917Z,23360.00
2019-03-28T12:39:15.675Z,21056.00
2019-03-28T12:40:14.258Z,19456.00
2019-03-28T12:41:14.436Z,17792.00
2019-03-28T12:42:14.612Z,16800.00
2019-03-28T12:43:14.790Z,17440.00
2019-03-28T12:44:14.962Z,17504.00
2019-03-28T12:45:15.141Z,16928.00
2019-03-28T12:46:15.314Z,17152.00
2019-03-28T12:47:15.489Z,18336.00
2019-03-28T12:48:15.667Z,19712.00
2019-03-28T12:49:15.847Z,21120.00
2019-03-28T12:50:16.020Z,22144.00
2019-03-28T12:51:16.203Z,22176.00
2019-03-28T12:52:16.371Z,21408.00
2019-03-28T12:53:16.547Z,21888.00
2019-03-28T12:54:16.728Z,22688.00
2019-03-28T12:55:16.893Z,24000.00
2019-03-28T12:56:17.067Z,25472.00
2019-03-28T12:57:17.244Z,26624.00
2019-03-28T12:58:17.418Z,28160.00
2019-03-28T12:59:17.593Z,31584.00
2019-03-28T13:00:17.770Z,37824.00
2019-03-28T13:01:17.946Z,41664.00
2019-03-28T13:02:29.896Z,38656.00
2019-03-28T13:03:18.297Z,36000.00
2019-03-28T13:04:18.473Z,36672.00
2019-03-28T13:05:18.651Z,34592.00
2019-03-28T13:06:18.830Z,32320.00
2019-03-28T13:07:19.011Z,30784.00
2019-03-28T13:08:19.178Z,27808.00
2019-03-28T13:09:19.352Z,24416.00
2019-03-28T13:10:19.528Z,22208.00
2019-03-28T13:11:19.885Z,21600.00
2019-03-28T13:12:19.879Z,22272.00
2019-03-28T13:13:20.056Z,23232.00
2019-03-28T13:14:20.231Z,23392.00
2019-03-28T13:15:20.406Z,23136.00
2019-03-28T13:16:20.582Z,21856.00
2019-03-28T13:17:20.759Z,19520.00
2019-03-28T13:18:20.934Z,16928.00
2019-03-28T13:19:21.110Z,14224.00
2019-03-28T13:20:22.311Z,12176.00
2019-03-28T13:21:21.463Z,10680.00
2019-03-28T13:22:21.639Z,9980.00
2019-03-28T13:23:21.815Z,9860.00
2019-03-28T13:24:21.988Z,10196.00
2019-03-28T13:25:22.164Z,10640.00
2019-03-28T13:26:22.342Z,11048.00
2019-03-28T13:27:22.518Z,11384.00
2019-03-28T13:28:22.693Z,12004.00
2019-03-28T13:29:22.868Z,12636.00
2019-03-28T13:30:23.045Z,12852.00
2019-03-28T13:31:23.217Z,12632.00
2019-03-28T13:32:23.391Z,12672.00
2019-03-28T13:33:23.567Z,13224.00
2019-03-28T13:34:23.743Z,13876.00
2019-03-28T13:35:23.918Z,14868.00
2019-03-28T13:36:24.091Z,15572.00
2019-03-28T13:37:24.272Z,16044.00
2019-03-28T13:38:24.448Z,20768.00
2019-03-28T13:39:24.617Z,24704.00
2019-03-28T13:40:24.801Z,16000.00
2019-03-28T13:41:24.977Z,15112.00
2019-03-28T13:42:25.151Z,12424.00
2019-03-28T13:43:25.328Z,10144.00
2019-03-28T13:44:25.523Z,9048.00
2019-03-28T13:45:25.675Z,8360.00
2019-03-28T13:46:25.853Z,7860.00
2019-03-28T13:47:26.028Z,7476.00
2019-03-28T13:48:26.204Z,7184.00
2019-03-28T13:49:26.378Z,6964.00
2019-03-28T13:50:26.556Z,6772.00
2019-03-28T13:51:26.729Z,6732.00
2019-03-28T13:52:26.909Z,6952.00
2019-03-28T13:53:38.885Z,7400.00
2019-03-28T13:54:27.252Z,7548.00
2019-03-28T13:55:27.426Z,7372.00
2019-03-28T13:56:27.604Z,7192.00
2019-03-28T13:57:27.778Z,7028.00
2019-03-28T13:58:27.953Z,6952.00
2019-03-28T13:59:28.129Z,6896.00
2019-03-28T14:00:28.302Z,6844.00
2019-03-28T14:01:28.476Z,6908.00
2019-03-28T14:02:28.651Z,7044.00
2019-03-28T14:03:28.827Z,7208.00
2019-03-28T14:04:29.003Z,7500.00
2019-03-28T14:05:29.178Z,7780.00
2019-03-28T14:06:30.496Z,7988.00
2019-03-28T14:07:29.531Z,8172.00
2019-03-28T14:08:29.703Z,8296.00
2019-03-28T14:09:29.880Z,8620.00
2019-03-28T14:10:30.065Z,9348.00
2019-03-28T14:11:30.232Z,10564.00
2019-03-28T14:12:30.406Z,11520.00
2019-03-28T14:13:30.583Z,12292.00
2019-03-28T14:14:30.758Z,10900.00
2019-03-28T14:15:30.943Z,10712.00
2019-03-28T14:16:31.110Z,10252.00
2019-03-28T14:17:31.288Z,9944.00
2019-03-28T14:18:31.474Z,9516.00
2019-03-28T14:19:31.656Z,9132.00
2019-03-28T14:20:31.826Z,8708.00
2019-03-28T14:21:32.001Z,8336.00
2019-03-28T14:22:32.181Z,7884.00
2019-03-28T14:23:32.377Z,7480.00
2019-03-28T14:24:32.550Z,7104.00
2019-03-28T14:25:32.725Z,6768.00
2019-03-28T14:26:32.900Z,6564.00
2019-03-28T14:27:33.082Z,6560.00
2019-03-28T14:28:33.250Z,6624.00
2019-03-28T14:29:33.426Z,6696.00
2019-03-28T14:30:33.604Z,6732.00
2019-03-28T14:31:33.778Z,6772.00
2019-03-28T14:32:33.953Z,6828.00
2019-03-28T14:33:34.128Z,7000.00
2019-03-28T14:34:34.303Z,7456.00
2019-03-28T14:35:34.479Z,8120.00
2019-03-28T14:36:34.653Z,8696.00
2019-03-28T14:37:34.831Z,9156.00
2019-03-28T14:38:37.463Z,9656.00
2019-03-28T14:39:35.494Z,10160.00
2019-03-28T14:40:35.352Z,10516.00
2019-03-28T14:41:35.531Z,10472.00
2019-03-28T14:42:35.711Z,10344.00
2019-03-28T14:43:36.533Z,10344.00
2019-03-28T14:44:36.054Z,10248.00
2019-03-28T14:45:36.229Z,10128.00
2019-03-28T14:46:36.403Z,10000.00
2019-03-28T14:47:36.575Z,10100.00
2019-03-28T14:48:36.786Z,10472.00
2019-03-28T14:49:36.928Z,10868.00
2019-03-28T14:50:37.100Z,11344.00
2019-03-28T14:51:37.369Z,11620.00
2019-03-28T14:52:37.448Z,11900.00
2019-03-28T14:53:37.622Z,12532.00
2019-03-28T14:54:37.795Z,13540.00
2019-03-28T14:55:37.969Z,15844.00
2019-03-28T14:56:38.141Z,19104.00
2019-03-28T14:57:38.315Z,21344.00
2019-03-28T14:58:38.490Z,22240.00
2019-03-28T14:59:38.666Z,25824.00
2019-03-28T15:00:38.838Z,26880.00
2019-03-28T15:01:39.018Z,24512.00
2019-03-28T15:02:39.193Z,31488.00
2019-03-28T15:03:39.361Z,22560.00
2019-03-28T15:04:39.537Z,20032.00
2019-03-28T15:05:39.711Z,21792.00
2019-03-28T15:06:39.882Z,18176.00
2019-03-28T15:07:40.056Z,16736.00
2019-03-28T15:08:40.228Z,14796.00
2019-03-28T15:09:40.404Z,12900.00
2019-03-28T15:10:40.577Z,10988.00
2019-03-28T15:11:40.753Z,9124.00
2019-03-28T15:12:40.926Z,7856.00
2019-03-28T15:13:41.100Z,7024.00
2019-03-28T15:14:41.276Z,6308.00
2019-03-28T15:15:41.449Z,5620.00
2019-03-28T15:16:41.626Z,5056.00
2019-03-28T15:17:44.868Z,4532.00
2019-03-28T15:18:41.973Z,4048.00
2019-03-28T15:19:42.148Z,3648.00
2019-03-28T15:20:42.318Z,3292.00
2019-03-28T15:21:42.496Z,3052.00
2019-03-28T15:22:42.669Z,2908.00
2019-03-28T15:23:42.846Z,2780.00
2019-03-28T15:24:43.018Z,2668.00
2019-03-28T15:25:43.192Z,2616.00
2019-03-28T15:26:43.548Z,2564.00
2019-03-28T15:27:43.541Z,2524.00
2019-03-28T15:28:43.716Z,2588.00
2019-03-28T15:29:43.889Z,2760.00
2019-03-28T15:30:44.065Z,2888.00
2019-03-28T15:31:44.237Z,2924.00
2019-03-28T15:32:44.417Z,2888.00
2019-03-28T15:33:44.584Z,2776.00
2019-03-28T15:34:44.759Z,2612.00
2019-03-28T15:35:45.003Z,2452.00
2019-03-28T15:36:45.109Z,2328.00
2019-03-28T15:37:45.282Z,2236.00
2019-03-28T15:38:45.459Z,2200.00
2019-03-28T15:39:45.631Z,2200.00
2019-03-28T15:40:45.802Z,2204.00
2019-03-28T15:41:45.978Z,2220.00
2019-03-28T15:42:46.152Z,2228.00
2019-03-28T15:43:46.326Z,2188.00
2019-03-28T15:44:46.500Z,2144.00
2019-03-28T15:45:46.673Z,2120.00
2019-03-28T15:46:46.849Z,2080.00
2019-03-28T15:47:47.024Z,2084.00
2019-03-28T15:48:47.195Z,2096.00
2019-03-28T15:49:47.371Z,2064.00
2019-03-28T15:50:47.545Z,2004.00
2019-03-28T15:51:47.721Z,1928.00
2019-03-28T15:52:47.896Z,1832.00
2019-03-28T15:53:48.070Z,1728.00
2019-03-28T15:54:48.242Z,1660.00
2019-03-28T15:55:48.417Z,1604.00
2019-03-28T15:56:48.594Z,1576.00
2019-03-28T15:57:48.763Z,1576.00
2019-03-28T15:58:48.934Z,1592.00
2019-03-28T15:59:49.107Z,1628.00
2019-03-28T16:00:49.285Z,1656.00
2019-03-28T16:01:49.456Z,1656.00
2019-03-28T16:02:49.629Z,1636.00
2019-03-28T16:03:53.245Z,1616.00
2019-03-28T16:04:49.975Z,1564.00
2019-03-28T16:05:58.186Z,1468.00
2019-03-28T16:06:50.321Z,1376.00
2019-03-28T16:07:50.494Z,1308.00
2019-03-28T16:08:50.667Z,1236.00
2019-03-28T16:09:50.844Z,1160.00
2019-03-28T16:10:51.019Z,1088.00
2019-03-28T16:12:01.973Z,1028.00
2019-03-28T16:12:51.363Z,980.00
2019-03-28T16:13:51.537Z,960.00
2019-03-28T16:14:51.711Z,948.00
2019-03-28T16:15:52.416Z,932.00
2019-03-28T16:16:52.056Z,900.00
2019-03-28T16:17:52.228Z,860.00
2019-03-28T16:18:52.405Z,836.00
2019-03-28T16:19:52.583Z,840.00
2019-03-28T16:20:53.485Z,872.00
2019-03-28T16:21:52.933Z,924.00
2019-03-28T16:22:53.104Z,952.00
2019-03-28T16:23:53.276Z,936.00
2019-03-28T16:24:53.454Z,908.00
2019-03-28T16:25:53.624Z,876.00
2019-03-28T16:26:53.799Z,856.00
2019-03-28T16:27:53.973Z,836.00
2019-03-28T16:28:56.508Z,816.00
2019-03-28T16:29:54.565Z,816.00
2019-03-28T16:30:54.490Z,816.00
2019-03-28T16:31:54.661Z,812.00
2019-03-28T16:32:54.837Z,788.00
2019-03-28T16:34:06.107Z,764.00
2019-03-28T16:34:55.181Z,748.00
2019-03-28T16:35:55.356Z,744.00
2019-03-28T16:36:55.526Z,760.00
2019-03-28T16:37:55.697Z,792.00
2019-03-28T16:38:55.872Z,836.00
2019-03-28T16:39:56.047Z,864.00
2019-03-28T16:40:56.217Z,876.00
2019-03-28T16:41:56.389Z,900.00
2019-03-28T16:42:56.565Z,900.00
2019-03-28T16:43:56.741Z,884.00
2019-03-28T16:44:56.910Z,856.00
2019-03-28T16:45:57.082Z,832.00
2019-03-28T16:46:57.263Z,820.00
2019-03-28T16:47:57.435Z,812.00
2019-03-28T16:48:57.604Z,812.00
2019-03-28T16:49:57.778Z,812.00
2019-03-28T16:50:57.962Z,808.00
2019-03-28T16:51:58.133Z,804.00
2019-03-28T16:52:58.307Z,776.00
2019-03-28T16:53:58.482Z,748.00
2019-03-28T16:54:58.657Z,716.00
2019-03-28T16:55:58.830Z,692.00
2019-03-28T16:56:59.008Z,672.00
2019-03-28T16:57:59.177Z,652.00
2019-03-28T16:58:59.351Z,636.00
2019-03-28T16:59:59.524Z,624.00